sensor_id;sensor_type;location;lat;lon;timestamp;pressure;altitude;pressure_sealevel;temperature;humidity
50710;BME280;37033;49.994;21.992;2023-04-04T00:00:34;99801.44;;;-1.87;71.11
50710;BME280;37033;49.994;21.992;2023-04-04T00:03:16;99803.44;;;-1.90;71.15
50710;BME280;37033;49.994;21.992;2023-04-04T00:05:47;99806.44;;;-1.94;71.30
50710;BME280;37033;49.994;21.992;2023-04-04T00:08:20;99810.05;;;-1.98;71.26
50710;BME280;37033;49.994;21.992;2023-04-04T00:10:51;99809.08;;;-2.03;71.43
50710;BME280;37033;49.994;21.992;2023-04-04T00:13:26;99808.26;;;-2.07;71.57
50710;BME280;37033;49.994;21.992;2023-04-04T00:15:57;99806.91;;;-2.11;71.51
50710;BME280;37033;49.994;21.992;2023-04-04T00:18:28;99804.33;;;-2.16;71.73
50710;BME280;37033;49.994;21.992;2023-04-04T00:20:58;99809.79;;;-2.19;71.83
50710;BME280;37033;49.994;21.992;2023-04-04T00:23:29;99807.76;;;-2.22;71.79
50710;BME280;37033;49.994;21.992;2023-04-04T00:26:00;99811.61;;;-2.25;71.90
50710;BME280;37033;49.994;21.992;2023-04-04T00:28:31;99819.18;;;-2.28;71.87
50710;BME280;37033;49.994;21.992;2023-04-04T00:31:02;99829.86;;;-2.32;72.02
50710;BME280;37033;49.994;21.992;2023-04-04T00:33:33;99831.64;;;-2.36;72.07
50710;BME280;37033;49.994;21.992;2023-04-04T00:36:04;99826.59;;;-2.39;72.30
50710;BME280;37033;49.994;21.992;2023-04-04T00:38:34;99826.16;;;-2.42;72.39
50710;BME280;37033;49.994;21.992;2023-04-04T00:41:06;99828.52;;;-2.44;72.53
50710;BME280;37033;49.994;21.992;2023-04-04T00:43:37;99830.02;;;-2.47;72.55
50710;BME280;37033;49.994;21.992;2023-04-04T00:46:08;99826.02;;;-2.49;72.74
50710;BME280;37033;49.994;21.992;2023-04-04T00:48:42;99825.14;;;-2.51;72.92
50710;BME280;37033;49.994;21.992;2023-04-04T00:51:13;99831.15;;;-2.55;72.96
50710;BME280;37033;49.994;21.992;2023-04-04T00:53:46;99827.97;;;-2.59;72.79
50710;BME280;37033;49.994;21.992;2023-04-04T00:56:18;99833.65;;;-2.61;73.05
50710;BME280;37033;49.994;21.992;2023-04-04T00:58:51;99833.64;;;-2.63;73.09
50710;BME280;37033;49.994;21.992;2023-04-04T01:01:22;99829.52;;;-2.64;73.25
50710;BME280;37033;49.994;21.992;2023-04-04T01:03:54;99826.64;;;-2.65;73.24
50710;BME280;37033;49.994;21.992;2023-04-04T01:06:24;99829.02;;;-2.66;73.35
50710;BME280;37033;49.994;21.992;2023-04-04T01:08:56;99830.84;;;-2.65;73.29
50710;BME280;37033;49.994;21.992;2023-04-04T01:11:28;99829.96;;;-2.63;73.41
50710;BME280;37033;49.994;21.992;2023-04-04T01:13:59;99822.48;;;-2.61;73.47
50710;BME280;37033;49.994;21.992;2023-04-04T01:16:29;99824.30;;;-2.57;73.62
50710;BME280;37033;49.994;21.992;2023-04-04T01:19:00;99821.97;;;-2.54;73.55
50710;BME280;37033;49.994;21.992;2023-04-04T01:21:31;99819.66;;;-2.50;73.67
50710;BME280;37033;49.994;21.992;2023-04-04T01:24:04;99820.35;;;-2.48;73.62
50710;BME280;37033;49.994;21.992;2023-04-04T01:26:36;99823.19;;;-2.46;73.62
50710;BME280;37033;49.994;21.992;2023-04-04T01:29:06;99821.81;;;-2.45;73.41
50710;BME280;37033;49.994;21.992;2023-04-04T01:31:40;99815.38;;;-2.44;73.47
50710;BME280;37033;49.994;21.992;2023-04-04T01:34:18;99812.21;;;-2.44;73.53
50710;BME280;37033;49.994;21.992;2023-04-04T01:36:55;99806.55;;;-2.45;73.55
50710;BME280;37033;49.994;21.992;2023-04-04T01:39:30;99805.02;;;-2.45;73.40
50710;BME280;37033;49.994;21.992;2023-04-04T01:42:02;99802.84;;;-2.46;73.61
50710;BME280;37033;49.994;21.992;2023-04-04T01:44:33;99801.52;;;-2.48;73.65
50710;BME280;37033;49.994;21.992;2023-04-04T01:47:06;99802.94;;;-2.49;73.65
50710;BME280;37033;49.994;21.992;2023-04-04T01:49:37;99801.38;;;-2.51;73.69
50710;BME280;37033;49.994;21.992;2023-04-04T01:52:08;99797.33;;;-2.54;73.77
50710;BME280;37033;49.994;21.992;2023-04-04T01:54:39;99798.53;;;-2.55;73.73
50710;BME280;37033;49.994;21.992;2023-04-04T01:57:09;99801.04;;;-2.57;73.84
50710;BME280;37033;49.994;21.992;2023-04-04T01:59:40;99795.74;;;-2.60;73.84
50710;BME280;37033;49.994;21.992;2023-04-04T02:02:11;99800.27;;;-2.63;73.89
50710;BME280;37033;49.994;21.992;2023-04-04T02:04:41;99801.39;;;-2.65;73.95
50710;BME280;37033;49.994;21.992;2023-04-04T02:07:12;99807.48;;;-2.68;74.14
50710;BME280;37033;49.994;21.992;2023-04-04T02:09:43;99807.77;;;-2.71;74.05
50710;BME280;37033;49.994;21.992;2023-04-04T02:12:14;99808.70;;;-2.73;74.10
50710;BME280;37033;49.994;21.992;2023-04-04T02:14:45;99811.58;;;-2.73;74.25
50710;BME280;37033;49.994;21.992;2023-04-04T02:17:16;99811.83;;;-2.74;74.31
50710;BME280;37033;49.994;21.992;2023-04-04T02:19:47;99814.25;;;-2.73;74.57
50710;BME280;37033;49.994;21.992;2023-04-04T02:22:18;99814.90;;;-2.72;74.50
50710;BME280;37033;49.994;21.992;2023-04-04T02:24:49;99815.80;;;-2.73;74.50
50710;BME280;37033;49.994;21.992;2023-04-04T02:27:22;99810.17;;;-2.73;74.49
50710;BME280;37033;49.994;21.992;2023-04-04T02:29:52;99819.01;;;-2.73;74.47
50710;BME280;37033;49.994;21.992;2023-04-04T02:32:24;99818.52;;;-2.73;74.48
50710;BME280;37033;49.994;21.992;2023-04-04T02:34:55;99821.52;;;-2.73;74.56
50710;BME280;37033;49.994;21.992;2023-04-04T02:37:26;99819.69;;;-2.73;74.59
50710;BME280;37033;49.994;21.992;2023-04-04T02:39:57;99814.53;;;-2.72;74.53
50710;BME280;37033;49.994;21.992;2023-04-04T02:44:58;99806.65;;;-2.70;74.55
50710;BME280;37033;49.994;21.992;2023-04-04T02:47:29;99806.30;;;-2.68;74.72
50710;BME280;37033;49.994;21.992;2023-04-04T02:50:00;99802.44;;;-2.67;74.67
50710;BME280;37033;49.994;21.992;2023-04-04T02:52:30;99800.30;;;-2.65;74.78
50710;BME280;37033;49.994;21.992;2023-04-04T02:55:01;99798.42;;;-2.64;74.87
50710;BME280;37033;49.994;21.992;2023-04-04T02:57:32;99795.46;;;-2.62;74.78
50710;BME280;37033;49.994;21.992;2023-04-04T03:00:04;99793.34;;;-2.61;74.67
50710;BME280;37033;49.994;21.992;2023-04-04T03:02:35;99788.25;;;-2.61;74.65
50710;BME280;37033;49.994;21.992;2023-04-04T03:05:07;99794.73;;;-2.60;74.67
50710;BME280;37033;49.994;21.992;2023-04-04T03:07:38;99790.09;;;-2.60;74.73
50710;BME280;37033;49.994;21.992;2023-04-04T03:10:09;99787.05;;;-2.60;74.74
50710;BME280;37033;49.994;21.992;2023-04-04T03:12:40;99783.41;;;-2.59;74.84
50710;BME280;37033;49.994;21.992;2023-04-04T03:15:12;99777.08;;;-2.57;74.82
50710;BME280;37033;49.994;21.992;2023-04-04T03:17:42;99775.84;;;-2.55;75.07
50710;BME280;37033;49.994;21.992;2023-04-04T03:20:14;99774.91;;;-2.55;74.96
50710;BME280;37033;49.994;21.992;2023-04-04T03:22:45;99767.77;;;-2.54;74.97
50710;BME280;37033;49.994;21.992;2023-04-04T03:25:16;99769.82;;;-2.52;74.92
50710;BME280;37033;49.994;21.992;2023-04-04T03:27:47;99765.56;;;-2.50;74.94
50710;BME280;37033;49.994;21.992;2023-04-04T03:30:17;99762.77;;;-2.47;75.13
50710;BME280;37033;49.994;21.992;2023-04-04T03:32:48;99760.20;;;-2.44;75.04
50710;BME280;37033;49.994;21.992;2023-04-04T03:35:19;99757.05;;;-2.41;74.98
50710;BME280;37033;49.994;21.992;2023-04-04T03:37:50;99755.14;;;-2.38;75.13
50710;BME280;37033;49.994;21.992;2023-04-04T03:40:23;99749.95;;;-2.35;75.16
50710;BME280;37033;49.994;21.992;2023-04-04T03:42:53;99746.72;;;-2.33;75.02
50710;BME280;37033;49.994;21.992;2023-04-04T03:45:24;99746.27;;;-2.31;75.14
50710;BME280;37033;49.994;21.992;2023-04-04T03:47:55;99742.63;;;-2.28;75.02
50710;BME280;37033;49.994;21.992;2023-04-04T03:50:26;99743.59;;;-2.27;74.93
50710;BME280;37033;49.994;21.992;2023-04-04T03:52:57;99749.39;;;-2.26;74.82
50710;BME280;37033;49.994;21.992;2023-04-04T03:55:28;99749.23;;;-2.26;74.90
50710;BME280;37033;49.994;21.992;2023-04-04T03:57:59;99753.86;;;-2.27;74.70
50710;BME280;37033;49.994;21.992;2023-04-04T04:00:30;99759.65;;;-2.26;74.83
50710;BME280;37033;49.994;21.992;2023-04-04T04:03:00;99764.00;;;-2.25;74.82
50710;BME280;37033;49.994;21.992;2023-04-04T04:05:31;99769.27;;;-2.25;74.85
50710;BME280;37033;49.994;21.992;2023-04-04T04:08:02;99765.99;;;-2.23;74.74
50710;BME280;37033;49.994;21.992;2023-04-04T04:10:33;99765.99;;;-2.24;74.78
50710;BME280;37033;49.994;21.992;2023-04-04T04:13:04;99763.64;;;-2.23;74.85
50710;BME280;37033;49.994;21.992;2023-04-04T04:15:35;99763.46;;;-2.23;74.67
50710;BME280;37033;49.994;21.992;2023-04-04T04:18:06;99763.37;;;-2.22;74.67
50710;BME280;37033;49.994;21.992;2023-04-04T04:20:36;99764.97;;;-2.22;74.77
50710;BME280;37033;49.994;21.992;2023-04-04T04:23:07;99763.75;;;-2.20;74.67
50710;BME280;37033;49.994;21.992;2023-04-04T04:25:38;99767.26;;;-2.18;74.77
50710;BME280;37033;49.994;21.992;2023-04-04T04:28:08;99768.35;;;-2.15;74.78
50710;BME280;37033;49.994;21.992;2023-04-04T04:30:39;99767.86;;;-2.11;74.85
50710;BME280;37033;49.994;21.992;2023-04-04T04:33:10;99771.23;;;-2.08;74.81
50710;BME280;37033;49.994;21.992;2023-04-04T04:35:41;99774.34;;;-2.05;74.77
50710;BME280;37033;49.994;21.992;2023-04-04T04:38:12;99775.73;;;-2.03;74.73
50710;BME280;37033;49.994;21.992;2023-04-04T04:40:43;99778.66;;;-2.01;74.77
50710;BME280;37033;49.994;21.992;2023-04-04T04:43:14;99778.45;;;-1.98;74.84
50710;BME280;37033;49.994;21.992;2023-04-04T04:45:44;99782.89;;;-1.96;74.88
50710;BME280;37033;49.994;21.992;2023-04-04T04:48:15;99785.95;;;-1.93;74.87
50710;BME280;37033;49.994;21.992;2023-04-04T04:50:46;99790.25;;;-1.90;74.83
50710;BME280;37033;49.994;21.992;2023-04-04T04:53:17;99793.29;;;-1.87;74.82
50710;BME280;37033;49.994;21.992;2023-04-04T04:55:48;99797.95;;;-1.84;74.71
50710;BME280;37033;49.994;21.992;2023-04-04T04:58:20;99797.54;;;-1.81;74.75
50710;BME280;37033;49.994;21.992;2023-04-04T05:00:55;99801.02;;;-1.79;74.83
50710;BME280;37033;49.994;21.992;2023-04-04T05:03:26;99802.41;;;-1.76;74.82
50710;BME280;37033;49.994;21.992;2023-04-04T05:05:57;99810.00;;;-1.74;74.80
50710;BME280;37033;49.994;21.992;2023-04-04T05:08:28;99812.75;;;-1.71;74.78
50710;BME280;37033;49.994;21.992;2023-04-04T05:10:58;99818.23;;;-1.69;74.72
50710;BME280;37033;49.994;21.992;2023-04-04T05:13:29;99820.56;;;-1.66;74.92
50710;BME280;37033;49.994;21.992;2023-04-04T05:16:00;99821.46;;;-1.62;74.89
50710;BME280;37033;49.994;21.992;2023-04-04T05:18:31;99826.08;;;-1.59;74.93
50710;BME280;37033;49.994;21.992;2023-04-04T05:21:02;99826.73;;;-1.56;74.88
50710;BME280;37033;49.994;21.992;2023-04-04T05:23:33;99822.13;;;-1.53;74.79
50710;BME280;37033;49.994;21.992;2023-04-04T05:26:04;99821.79;;;-1.50;74.60
50710;BME280;37033;49.994;21.992;2023-04-04T05:28:35;99820.30;;;-1.47;74.56
50710;BME280;37033;49.994;21.992;2023-04-04T05:31:06;99816.61;;;-1.44;74.49
50710;BME280;37033;49.994;21.992;2023-04-04T05:33:36;99812.98;;;-1.40;74.53
50710;BME280;37033;49.994;21.992;2023-04-04T05:36:07;99805.48;;;-1.35;74.54
50710;BME280;37033;49.994;21.992;2023-04-04T05:38:39;99805.71;;;-1.31;74.53
50710;BME280;37033;49.994;21.992;2023-04-04T05:41:10;99802.88;;;-1.26;74.29
50710;BME280;37033;49.994;21.992;2023-04-04T05:43:40;99800.79;;;-1.21;74.15
50710;BME280;37033;49.994;21.992;2023-04-04T05:46:11;99805.36;;;-1.15;73.77
50710;BME280;37033;49.994;21.992;2023-04-04T05:48:42;99810.48;;;-1.11;73.55
50710;BME280;37033;49.994;21.992;2023-04-04T05:51:12;99811.54;;;-1.06;73.36
50710;BME280;37033;49.994;21.992;2023-04-04T05:53:44;99810.06;;;-1.00;73.12
50710;BME280;37033;49.994;21.992;2023-04-04T05:56:15;99810.02;;;-0.92;72.64
50710;BME280;37033;49.994;21.992;2023-04-04T05:58:46;99807.48;;;-0.85;72.65
50710;BME280;37033;49.994;21.992;2023-04-04T06:01:17;99813.39;;;-0.77;72.29
50710;BME280;37033;49.994;21.992;2023-04-04T06:03:48;99808.05;;;-0.72;72.29
50710;BME280;37033;49.994;21.992;2023-04-04T06:06:18;99806.22;;;-0.64;72.33
50710;BME280;37033;49.994;21.992;2023-04-04T06:08:49;99805.45;;;-0.56;71.68
50710;BME280;37033;49.994;21.992;2023-04-04T06:11:20;99802.72;;;-0.49;71.51
50710;BME280;37033;49.994;21.992;2023-04-04T06:13:52;99804.02;;;-0.40;71.58
50710;BME280;37033;49.994;21.992;2023-04-04T06:16:23;99803.00;;;-0.30;71.06
50710;BME280;37033;49.994;21.992;2023-04-04T06:18:54;99799.13;;;-0.22;70.94
50710;BME280;37033;49.994;21.992;2023-04-04T06:21:25;99803.14;;;-0.12;70.51
50710;BME280;37033;49.994;21.992;2023-04-04T06:23:56;99806.42;;;-0.07;70.21
50710;BME280;37033;49.994;21.992;2023-04-04T06:26:27;99802.95;;;-0.02;69.62
50710;BME280;37033;49.994;21.992;2023-04-04T06:28:58;99802.40;;;0.03;69.77
50710;BME280;37033;49.994;21.992;2023-04-04T06:31:28;99804.10;;;0.12;69.62
50710;BME280;37033;49.994;21.992;2023-04-04T06:33:59;99799.45;;;0.21;69.63
50710;BME280;37033;49.994;21.992;2023-04-04T06:36:30;99800.40;;;0.33;69.91
50710;BME280;37033;49.994;21.992;2023-04-04T06:39:01;99801.58;;;0.44;69.18
50710;BME280;37033;49.994;21.992;2023-04-04T06:41:32;99802.85;;;0.47;68.37
50710;BME280;37033;49.994;21.992;2023-04-04T06:44:03;99805.89;;;0.47;68.33
50710;BME280;37033;49.994;21.992;2023-04-04T06:46:37;99803.13;;;0.48;68.01
50710;BME280;37033;49.994;21.992;2023-04-04T06:49:08;99803.86;;;0.51;68.43
50710;BME280;37033;49.994;21.992;2023-04-04T06:51:40;99800.71;;;0.60;68.61
50710;BME280;37033;49.994;21.992;2023-04-04T06:54:11;99802.16;;;0.70;67.66
50710;BME280;37033;49.994;21.992;2023-04-04T06:56:42;99802.88;;;0.80;67.91
50710;BME280;37033;49.994;21.992;2023-04-04T06:59:12;99806.34;;;0.87;67.70
50710;BME280;37033;49.994;21.992;2023-04-04T07:01:43;99808.16;;;0.95;67.80
50710;BME280;37033;49.994;21.992;2023-04-04T07:04:14;99809.80;;;1.03;67.54
50710;BME280;37033;49.994;21.992;2023-04-04T07:06:47;99808.55;;;1.11;67.15
50710;BME280;37033;49.994;21.992;2023-04-04T07:09:18;99812.69;;;1.21;66.34
50710;BME280;37033;49.994;21.992;2023-04-04T07:11:49;99810.32;;;1.27;65.90
50710;BME280;37033;49.994;21.992;2023-04-04T07:14:19;99815.77;;;1.31;64.68
50710;BME280;37033;49.994;21.992;2023-04-04T07:16:53;99815.52;;;1.35;64.20
50710;BME280;37033;49.994;21.992;2023-04-04T07:19:24;99819.06;;;1.40;63.65
50710;BME280;37033;49.994;21.992;2023-04-04T07:21:57;99812.92;;;1.44;63.24
50710;BME280;37033;49.994;21.992;2023-04-04T07:24:28;99807.35;;;1.52;63.25
50710;BME280;37033;49.994;21.992;2023-04-04T07:26:58;99813.81;;;1.62;63.55
50710;BME280;37033;49.994;21.992;2023-04-04T07:29:29;99808.99;;;1.68;63.56
50710;BME280;37033;49.994;21.992;2023-04-04T07:32:00;99809.98;;;1.72;63.20
50710;BME280;37033;49.994;21.992;2023-04-04T07:34:31;99802.47;;;1.77;62.01
50710;BME280;37033;49.994;21.992;2023-04-04T07:37:02;99800.28;;;1.78;62.62
50710;BME280;37033;49.994;21.992;2023-04-04T07:39:33;99803.79;;;1.85;62.23
50710;BME280;37033;49.994;21.992;2023-04-04T07:42:05;99803.75;;;1.85;61.02
50710;BME280;37033;49.994;21.992;2023-04-04T07:44:36;99800.21;;;1.86;60.57
50710;BME280;37033;49.994;21.992;2023-04-04T07:47:07;99801.03;;;1.89;60.75
50710;BME280;37033;49.994;21.992;2023-04-04T07:49:39;99799.68;;;1.93;59.68
50710;BME280;37033;49.994;21.992;2023-04-04T07:52:09;99799.09;;;1.95;59.71
50710;BME280;37033;49.994;21.992;2023-04-04T07:54:40;99794.02;;;1.97;57.93
50710;BME280;37033;49.994;21.992;2023-04-04T07:57:11;99794.67;;;2.00;57.53
50710;BME280;37033;49.994;21.992;2023-04-04T07:59:42;99788.59;;;2.04;57.12
50710;BME280;37033;49.994;21.992;2023-04-04T08:02:13;99784.30;;;2.15;57.11
50710;BME280;37033;49.994;21.992;2023-04-04T08:04:44;99772.29;;;2.22;57.07
50710;BME280;37033;49.994;21.992;2023-04-04T08:07:15;99767.17;;;2.35;57.63
50710;BME280;37033;49.994;21.992;2023-04-04T08:09:45;99759.10;;;2.51;57.61
50710;BME280;37033;49.994;21.992;2023-04-04T08:12:17;99754.79;;;2.71;57.38
50710;BME280;37033;49.994;21.992;2023-04-04T08:14:47;99751.52;;;2.89;55.81
50710;BME280;37033;49.994;21.992;2023-04-04T08:17:18;99746.98;;;2.99;53.82
50710;BME280;37033;49.994;21.992;2023-04-04T08:19:49;99749.29;;;3.01;52.57
50710;BME280;37033;49.994;21.992;2023-04-04T08:22:20;99747.20;;;2.98;52.46
50710;BME280;37033;49.994;21.992;2023-04-04T08:24:51;99751.38;;;2.96;52.72
50710;BME280;37033;49.994;21.992;2023-04-04T08:27:22;99752.10;;;2.98;53.17
50710;BME280;37033;49.994;21.992;2023-04-04T08:29:53;99751.56;;;2.95;53.22
50710;BME280;37033;49.994;21.992;2023-04-04T08:32:24;99752.24;;;2.87;52.88
50710;BME280;37033;49.994;21.992;2023-04-04T08:34:56;99751.80;;;2.81;52.89
50710;BME280;37033;49.994;21.992;2023-04-04T08:37:28;99745.90;;;2.76;53.62
50710;BME280;37033;49.994;21.992;2023-04-04T08:39:59;99746.34;;;2.83;52.88
50710;BME280;37033;49.994;21.992;2023-04-04T08:42:31;99746.29;;;2.82;52.45
50710;BME280;37033;49.994;21.992;2023-04-04T08:45:05;99746.08;;;2.77;52.03
50710;BME280;37033;49.994;21.992;2023-04-04T08:47:38;99742.41;;;2.72;51.77
50710;BME280;37033;49.994;21.992;2023-04-04T08:50:09;99742.96;;;2.68;51.31
50710;BME280;37033;49.994;21.992;2023-04-04T08:52:40;99747.23;;;2.66;51.00
50710;BME280;37033;49.994;21.992;2023-04-04T08:55:12;99741.48;;;2.65;50.97
50710;BME280;37033;49.994;21.992;2023-04-04T08:57:43;99740.65;;;2.65;51.09
50710;BME280;37033;49.994;21.992;2023-04-04T09:00:16;99748.66;;;2.60;50.23
50710;BME280;37033;49.994;21.992;2023-04-04T09:02:54;99752.14;;;2.53;49.73
50710;BME280;37033;49.994;21.992;2023-04-04T09:05:26;99755.67;;;2.45;49.85
50710;BME280;37033;49.994;21.992;2023-04-04T09:07:58;99757.94;;;2.41;50.03
50710;BME280;37033;49.994;21.992;2023-04-04T09:10:29;99760.71;;;2.38;50.78
50710;BME280;37033;49.994;21.992;2023-04-04T09:13:02;99758.52;;;2.36;50.65
50710;BME280;37033;49.994;21.992;2023-04-04T09:15:34;99762.31;;;2.29;50.99
50710;BME280;37033;49.994;21.992;2023-04-04T09:18:06;99757.05;;;2.28;51.35
50710;BME280;37033;49.994;21.992;2023-04-04T09:20:39;99755.11;;;2.28;52.24
50710;BME280;37033;49.994;21.992;2023-04-04T09:23:11;99757.28;;;2.34;51.85
50710;BME280;37033;49.994;21.992;2023-04-04T09:25:49;99752.53;;;2.33;51.44
50710;BME280;37033;49.994;21.992;2023-04-04T09:28:21;99757.15;;;2.33;51.58
50710;BME280;37033;49.994;21.992;2023-04-04T09:30:53;99758.04;;;2.35;51.31
50710;BME280;37033;49.994;21.992;2023-04-04T09:33:24;99765.62;;;2.36;50.74
50710;BME280;37033;49.994;21.992;2023-04-04T09:35:58;99769.61;;;2.31;50.01
50710;BME280;37033;49.994;21.992;2023-04-04T09:38:30;99771.80;;;2.26;49.66
50710;BME280;37033;49.994;21.992;2023-04-04T09:41:01;99771.98;;;2.18;49.72
50710;BME280;37033;49.994;21.992;2023-04-04T09:43:32;99770.61;;;2.16;50.36
50710;BME280;37033;49.994;21.992;2023-04-04T09:46:03;99773.34;;;2.18;50.63
50710;BME280;37033;49.994;21.992;2023-04-04T09:48:35;99768.43;;;2.23;51.14
50710;BME280;37033;49.994;21.992;2023-04-04T09:51:10;99767.15;;;2.32;51.94
50710;BME280;37033;49.994;21.992;2023-04-04T09:53:42;99768.70;;;2.45;50.91
50710;BME280;37033;49.994;21.992;2023-04-04T09:56:17;99771.94;;;2.51;50.63
50710;BME280;37033;49.994;21.992;2023-04-04T09:58:49;99770.71;;;2.58;50.99
50710;BME280;37033;49.994;21.992;2023-04-04T10:01:20;99758.19;;;2.75;50.75
50710;BME280;37033;49.994;21.992;2023-04-04T10:03:54;99770.54;;;2.90;50.25
50710;BME280;37033;49.994;21.992;2023-04-04T10:06:25;99760.02;;;2.91;50.04
50710;BME280;37033;49.994;21.992;2023-04-04T10:08:56;99757.89;;;2.93;49.42
50710;BME280;37033;49.994;21.992;2023-04-04T10:11:32;99751.70;;;2.93;49.72
50710;BME280;37033;49.994;21.992;2023-04-04T10:14:03;99751.64;;;2.94;49.93
50710;BME280;37033;49.994;21.992;2023-04-04T10:16:34;99761.59;;;2.94;50.23
50710;BME280;37033;49.994;21.992;2023-04-04T10:19:06;99754.08;;;2.98;50.28
50710;BME280;37033;49.994;21.992;2023-04-04T10:21:38;99751.14;;;3.00;50.05
50710;BME280;37033;49.994;21.992;2023-04-04T10:24:09;99749.86;;;3.00;50.15
50710;BME280;37033;49.994;21.992;2023-04-04T10:26:41;99746.41;;;3.07;50.36
50710;BME280;37033;49.994;21.992;2023-04-04T10:29:13;99743.45;;;3.13;50.15
50710;BME280;37033;49.994;21.992;2023-04-04T10:31:44;99741.73;;;3.20;50.04
50710;BME280;37033;49.994;21.992;2023-04-04T10:34:22;99732.55;;;3.25;49.74
50710;BME280;37033;49.994;21.992;2023-04-04T10:37:02;99726.05;;;3.31;49.62
50710;BME280;37033;49.994;21.992;2023-04-04T10:39:43;99723.17;;;3.55;49.94
50710;BME280;37033;49.994;21.992;2023-04-04T10:42:15;99728.61;;;3.79;49.88
50710;BME280;37033;49.994;21.992;2023-04-04T10:44:48;99727.71;;;3.92;49.05
50710;BME280;37033;49.994;21.992;2023-04-04T10:47:21;99732.95;;;3.87;47.36
50710;BME280;37033;49.994;21.992;2023-04-04T10:49:52;99720.66;;;3.72;47.52
50710;BME280;37033;49.994;21.992;2023-04-04T10:52:26;99720.80;;;3.67;47.75
50710;BME280;37033;49.994;21.992;2023-04-04T10:55:01;99723.21;;;3.67;48.06
50710;BME280;37033;49.994;21.992;2023-04-04T10:57:37;99722.84;;;3.71;47.84
50710;BME280;37033;49.994;21.992;2023-04-04T11:00:13;99719.91;;;3.83;45.59
50710;BME280;37033;49.994;21.992;2023-04-04T11:02:48;99718.29;;;3.89;45.68
50710;BME280;37033;49.994;21.992;2023-04-04T11:05:22;99719.86;;;3.89;46.11
50710;BME280;37033;49.994;21.992;2023-04-04T11:07:57;99713.42;;;3.86;46.19
50710;BME280;37033;49.994;21.992;2023-04-04T11:10:27;99713.48;;;3.77;46.02
50710;BME280;37033;49.994;21.992;2023-04-04T11:13:02;99714.42;;;3.72;46.58
50710;BME280;37033;49.994;21.992;2023-04-04T11:16:03;99702.64;;;3.73;46.54
50710;BME280;37033;49.994;21.992;2023-04-04T11:21:21;99701.37;;;3.92;46.38
50710;BME280;37033;49.994;21.992;2023-04-04T11:24:14;99706.94;;;4.16;45.86
50710;BME280;37033;49.994;21.992;2023-04-04T11:26:45;99696.77;;;4.24;45.70
50710;BME280;37033;49.994;21.992;2023-04-04T11:29:51;99699.27;;;4.24;45.26
50710;BME280;37033;49.994;21.992;2023-04-04T11:32:42;99703.36;;;4.18;46.04
50710;BME280;37033;49.994;21.992;2023-04-04T11:35:13;99697.73;;;4.06;46.47
50710;BME280;37033;49.994;21.992;2023-04-04T11:37:59;99696.38;;;3.95;46.87
50710;BME280;37033;49.994;21.992;2023-04-04T11:40:37;99708.38;;;3.84;46.59
50710;BME280;37033;49.994;21.992;2023-04-04T11:43:10;99703.65;;;3.72;46.33
50710;BME280;37033;49.994;21.992;2023-04-04T11:45:45;99695.98;;;3.64;46.77
50710;BME280;37033;49.994;21.992;2023-04-04T11:48:18;99692.13;;;3.58;46.85
50710;BME280;37033;49.994;21.992;2023-04-04T11:50:50;99697.42;;;3.59;47.02
50710;BME280;37033;49.994;21.992;2023-04-04T11:53:22;99698.07;;;3.64;47.55
50710;BME280;37033;49.994;21.992;2023-04-04T11:55:53;99688.96;;;3.74;47.67
50710;BME280;37033;49.994;21.992;2023-04-04T11:58:26;99681.61;;;3.84;47.74
50710;BME280;37033;49.994;21.992;2023-04-04T12:00:58;99679.67;;;4.10;47.87
50710;BME280;37033;49.994;21.992;2023-04-04T12:03:29;99682.25;;;4.28;46.89
50710;BME280;37033;49.994;21.992;2023-04-04T12:06:00;99678.04;;;4.24;46.49
50710;BME280;37033;49.994;21.992;2023-04-04T12:08:31;99688.15;;;4.17;46.73
50710;BME280;37033;49.994;21.992;2023-04-04T12:11:07;99686.04;;;4.03;46.37
50710;BME280;37033;49.994;21.992;2023-04-04T12:13:43;99691.75;;;3.91;46.24
50710;BME280;37033;49.994;21.992;2023-04-04T12:16:14;99699.98;;;3.79;46.26
50710;BME280;37033;49.994;21.992;2023-04-04T12:18:48;99696.46;;;3.72;46.98
50710;BME280;37033;49.994;21.992;2023-04-04T12:21:18;99694.86;;;3.72;47.09
50710;BME280;37033;49.994;21.992;2023-04-04T12:23:49;99698.87;;;3.69;46.51
50710;BME280;37033;49.994;21.992;2023-04-04T12:26:20;99701.25;;;3.64;46.86
50710;BME280;37033;49.994;21.992;2023-04-04T12:28:51;99696.16;;;3.61;46.97
50710;BME280;37033;49.994;21.992;2023-04-04T12:31:25;99695.27;;;3.56;46.78
50710;BME280;37033;49.994;21.992;2023-04-04T12:33:56;99695.45;;;3.56;47.49
50710;BME280;37033;49.994;21.992;2023-04-04T12:36:29;99698.83;;;3.62;47.85
50710;BME280;37033;49.994;21.992;2023-04-04T12:39:03;99695.57;;;3.64;48.42
50710;BME280;37033;49.994;21.992;2023-04-04T12:41:45;99697.71;;;3.65;48.47
50710;BME280;37033;49.994;21.992;2023-04-04T12:44:29;99694.17;;;3.61;48.23
50710;BME280;37033;49.994;21.992;2023-04-04T12:47:01;99693.96;;;3.57;47.55
50710;BME280;37033;49.994;21.992;2023-04-04T12:49:34;99692.30;;;3.60;46.87
50710;BME280;37033;49.994;21.992;2023-04-04T12:52:17;99686.31;;;3.66;46.97
50710;BME280;37033;49.994;21.992;2023-04-04T12:54:52;99681.48;;;3.75;47.01
50710;BME280;37033;49.994;21.992;2023-04-04T12:57:25;99676.36;;;3.84;46.61
50710;BME280;37033;49.994;21.992;2023-04-04T12:59:56;99672.39;;;3.92;46.05
50710;BME280;37033;49.994;21.992;2023-04-04T13:02:31;99670.64;;;3.94;46.26
50710;BME280;37033;49.994;21.992;2023-04-04T13:05:05;99675.63;;;3.92;45.90
50710;BME280;37033;49.994;21.992;2023-04-04T13:07:37;99670.88;;;3.83;45.85
50710;BME280;37033;49.994;21.992;2023-04-04T13:10:10;99661.98;;;3.70;46.09
50710;BME280;37033;49.994;21.992;2023-04-04T13:12:56;99662.45;;;3.64;46.38
50710;BME280;37033;49.994;21.992;2023-04-04T13:18:16;99655.09;;;3.60;47.48
50710;BME280;37033;49.994;21.992;2023-04-04T13:20:50;99651.61;;;3.63;47.15
50710;BME280;37033;49.994;21.992;2023-04-04T13:23:23;99650.15;;;3.62;47.11
50710;BME280;37033;49.994;21.992;2023-04-04T13:25:54;99643.05;;;3.67;47.35
50710;BME280;37033;49.994;21.992;2023-04-04T13:28:26;99645.56;;;3.77;47.14